Time;durP1;ratioP1;P1;durP2;ratioP2;P2;SDS_P1;SDS_P2;PMS_P1;PMS_P2;Temp;Humidity;BMP_temperature;BMP_pressure;BME280_temperature;BME280_humidity;BME280_pressure;Samples;Min_cycle;Max_cycle;Signal;HPM_P1;HPM_P2
2024/02/14 00:00:15;;;;;;;15.55;14.10;;;5.30;99.90;;;;;;4949366;28;20122;-72
2024/02/14 00:02:49;;;;;;;15.48;14.27;;;5.30;99.90;;;;;;4946829;28;20425;-69
2024/02/14 00:05:17;;;;;;;16.98;15.57;;;5.30;99.90;;;;;;4948554;28;20147;-73
2024/02/14 00:07:44;;;;;;;15.27;14.27;;;5.30;99.90;;;;;;4950977;28;20042;-69
2024/02/14 00:10:11;;;;;;;16.67;15.25;;;5.30;99.90;;;;;;4949271;28;20105;-71
2024/02/14 00:12:38;;;;;;;15.68;14.68;;;5.40;99.90;;;;;;4950765;28;20109;-70
2024/02/14 00:15:07;;;;;;;16.08;14.82;;;5.40;99.90;;;;;;4940377;28;20102;-71
2024/02/14 00:17:34;;;;;;;16.27;14.93;;;5.40;99.90;;;;;;4925821;28;20047;-72
2024/02/14 00:20:03;;;;;;;17.38;15.73;;;5.40;99.90;;;;;;4919690;28;20070;-72
2024/02/14 00:22:30;;;;;;;16.98;15.73;;;5.40;99.90;;;;;;4942621;28;20089;-71
2024/02/14 00:24:57;;;;;;;17.10;15.60;;;5.50;99.90;;;;;;4950542;28;20055;-70
2024/02/14 00:27:25;;;;;;;16.60;15.48;;;5.50;99.90;;;;;;4959848;28;20571;-70
2024/02/14 00:29:53;;;;;;;18.67;16.88;;;5.60;99.90;;;;;;4943080;28;20422;-73
2024/02/14 00:32:20;;;;;;;17.45;15.82;;;5.60;99.90;;;;;;4942603;28;20051;-70
2024/02/14 00:34:49;;;;;;;17.15;15.85;;;5.60;99.90;;;;;;4928567;28;20063;-69
2024/02/14 00:37:16;;;;;;;17.80;16.33;;;5.70;99.90;;;;;;4949161;28;20258;-71
2024/02/14 00:39:43;;;;;;;17.75;16.23;;;5.70;99.90;;;;;;4946525;28;20053;-71
2024/02/14 00:42:11;;;;;;;18.35;16.65;;;5.80;99.90;;;;;;4946527;28;20057;-70
2024/02/14 00:44:38;;;;;;;16.58;15.23;;;5.80;99.90;;;;;;4945074;28;20063;-70
2024/02/14 00:47:05;;;;;;;20.13;18.38;;;5.90;99.90;;;;;;4945437;28;20043;-71
2024/02/14 00:49:34;;;;;;;17.48;16.08;;;5.90;99.90;;;;;;4932462;28;20550;-71
2024/02/14 00:52:02;;;;;;;18.92;17.20;;;5.90;99.90;;;;;;4931415;28;20047;-71
2024/02/14 00:54:29;;;;;;;18.98;17.38;;;6.00;99.90;;;;;;4933897;28;20055;-70
2024/02/14 00:56:56;;;;;;;18.42;16.73;;;6.10;99.90;;;;;;4940314;28;20166;-71
2024/02/14 00:59:24;;;;;;;19.08;17.25;;;6.10;99.90;;;;;;4948505;28;20057;-71
2024/02/14 01:01:51;;;;;;;18.17;16.73;;;6.10;99.90;;;;;;4945563;28;20043;-70
2024/02/14 01:04:18;;;;;;;18.90;17.48;;;6.10;99.90;;;;;;4953678;28;20097;-72
2024/02/14 01:06:45;;;;;;;19.13;17.63;;;6.10;99.90;;;;;;4950851;28;20065;-70
2024/02/14 01:09:12;;;;;;;18.25;16.75;;;6.10;99.90;;;;;;4963244;28;20051;-70
2024/02/14 01:11:39;;;;;;;20.17;18.67;;;6.20;99.90;;;;;;4971277;28;20039;-71
2024/02/14 01:14:06;;;;;;;18.42;17.15;;;6.20;99.90;;;;;;4946811;28;20066;-72
2024/02/14 01:16:33;;;;;;;19.17;17.30;;;6.20;99.90;;;;;;4948039;28;20046;-71
2024/02/14 01:19:00;;;;;;;18.85;17.20;;;6.20;99.90;;;;;;4948084;28;20510;-70
2024/02/14 01:21:28;;;;;;;19.15;17.73;;;6.20;99.90;;;;;;4936951;28;20832;-71
2024/02/14 01:23:55;;;;;;;18.67;16.92;;;6.30;99.90;;;;;;4928782;28;20063;-71
2024/02/14 01:26:22;;;;;;;19.33;17.45;;;6.30;99.90;;;;;;4928414;28;20043;-69
2024/02/14 01:28:49;;;;;;;19.40;17.75;;;6.30;99.90;;;;;;4925695;28;20046;-72
2024/02/14 01:31:15;;;;;;;19.80;18.25;;;6.40;99.90;;;;;;4932922;28;20047;-71
2024/02/14 01:33:43;;;;;;;18.73;17.13;;;6.30;99.90;;;;;;4948051;28;20043;-70
2024/02/14 01:36:10;;;;;;;20.90;19.02;;;6.40;99.90;;;;;;4948924;28;20141;-70
2024/02/14 01:38:37;;;;;;;18.83;17.13;;;6.40;99.90;;;;;;4950678;28;20042;-71
2024/02/14 01:41:05;;;;;;;18.58;16.95;;;6.40;99.90;;;;;;4937406;28;20049;-71
2024/02/14 01:43:32;;;;;;;19.38;17.40;;;6.40;99.90;;;;;;4970674;28;20192;-72
2024/02/14 01:46:07;;;;;;;19.73;17.92;;;6.40;99.90;;;;;;4958376;28;20663;-71
2024/02/14 01:48:34;;;;;;;;;;;6.40;99.90;;;;;;4929586;28;20055;-72
2024/02/14 01:51:04;;;;;;;18.83;17.33;;;6.40;99.90;;;;;;4927412;28;19966;-72
2024/02/14 01:53:32;;;;;;;18.23;16.77;;;6.40;99.90;;;;;;4931863;28;20059;-71
2024/02/14 01:55:59;;;;;;;21.45;16.85;;;6.40;99.90;;;;;;4941905;28;20050;-71
2024/02/14 01:58:29;;;;;;;20.27;17.70;;;6.40;99.90;;;;;;4928586;28;20527;-72
2024/02/14 02:00:56;;;;;;;18.10;16.60;;;6.40;99.90;;;;;;4951678;28;20054;-70
2024/02/14 02:03:25;;;;;;;18.73;17.02;;;6.40;99.90;;;;;;4945062;28;20151;-71
2024/02/14 02:05:53;;;;;;;18.98;17.20;;;6.50;99.90;;;;;;4945434;28;20126;-69
2024/02/14 02:08:21;;;;;;;20.08;18.08;;;6.50;99.90;;;;;;4928113;28;20151;-73
2024/02/14 02:10:48;;;;;;;19.83;17.95;;;6.50;99.90;;;;;;4926611;28;20643;-71
2024/02/14 02:13:15;;;;;;;18.88;17.40;;;6.40;99.90;;;;;;4929231;28;20043;-71
2024/02/14 02:15:45;;;;;;;17.55;15.73;;;6.40;99.90;;;;;;4927157;28;20054;-71
2024/02/14 02:18:12;;;;;;;16.58;15.07;;;6.40;99.90;;;;;;4945735;28;20051;-71
2024/02/14 02:20:42;;;;;;;16.45;14.75;;;6.40;99.90;;;;;;4964010;28;20043;-72
2024/02/14 02:23:15;;;;;;;17.58;14.20;;;6.40;99.90;;;;;;4960247;28;20046;-72
2024/02/14 02:25:43;;;;;;;15.90;14.40;;;6.30;99.90;;;;;;4953833;28;20133;-72
2024/02/14 02:28:10;;;;;;;15.25;13.18;;;6.30;99.90;;;;;;4950126;28;20054;-70
2024/02/14 02:30:37;;;;;;;17.13;12.35;;;6.20;99.90;;;;;;4949099;28;20459;-71
2024/02/14 02:33:05;;;;;;;13.52;12.15;;;6.30;99.90;;;;;;4946781;28;20039;-72
2024/02/14 02:35:33;;;;;;;12.88;11.50;;;6.30;99.90;;;;;;4940339;28;20127;-71
2024/02/14 02:38:01;;;;;;;14.40;11.10;;;6.30;99.90;;;;;;4923967;28;20047;-70
2024/02/14 02:40:28;;;;;;;11.32;10.23;;;6.20;99.90;;;;;;4932205;28;20050;-71
2024/02/14 02:42:55;;;;;;;13.80;10.80;;;6.20;99.90;;;;;;4929960;28;21319;-70
2024/02/14 02:45:22;;;;;;;13.82;11.25;;;6.30;99.90;;;;;;4947915;28;20054;-71
2024/02/14 02:47:52;;;;;;;15.38;10.38;;;6.30;99.90;;;;;;4908184;29;20044;-71
2024/02/14 02:50:19;;;;;;;13.52;10.52;;;6.30;99.90;;;;;;4919278;28;20066;-70
2024/02/14 02:52:47;;;;;;;10.05;9.05;;;6.30;99.90;;;;;;4928286;28;20466;-71
2024/02/14 02:55:17;;;;;;;16.73;10.40;;;6.30;99.90;;;;;;4927753;28;21393;-73
2024/02/14 02:57:45;;;;;;;12.43;9.02;;;6.30;99.90;;;;;;4931703;28;20039;-73
2024/02/14 03:00:15;;;;;;;12.98;9.02;;;6.30;99.90;;;;;;4928262;28;20135;-71
2024/02/14 03:02:44;;;;;;;11.18;9.30;;;6.30;99.90;;;;;;4929529;28;20047;-71
2024/02/14 03:05:17;;;;;;;15.23;7.82;;;6.30;99.90;;;;;;4936665;28;20053;-69
2024/02/14 03:07:45;;;;;;;13.00;8.13;;;6.30;99.90;;;;;;4941508;28;20114;-69
2024/02/14 03:10:17;;;;;;;16.90;9.13;;;6.30;99.90;;;;;;4949158;28;20050;-71
2024/02/14 03:12:48;;;;;;;11.48;8.85;;;6.40;99.90;;;;;;4949059;28;20047;-71
2024/02/14 03:15:16;;;;;;;15.00;9.30;;;6.40;99.90;;;;;;4955637;28;21432;-71
2024/02/14 03:17:43;;;;;;;11.68;7.57;;;6.40;99.90;;;;;;4946112;28;20093;-71
2024/02/14 03:20:14;;;;;;;8.95;7.57;;;6.40;99.90;;;;;;4941749;28;20045;-71
2024/02/14 03:22:44;;;;;;;9.63;6.72;;;6.40;99.90;;;;;;4934794;28;20046;-73
2024/02/14 03:25:21;;;;;;;8.95;7.50;;;6.40;99.90;;;;;;4942839;28;20784;-70
2024/02/14 03:27:52;;;;;;;14.27;7.35;;;6.40;99.90;;;;;;4944271;28;20119;-73
2024/02/14 03:30:20;;;;;;;16.02;7.53;;;6.40;99.90;;;;;;4926188;28;20051;-71
2024/02/14 03:32:47;;;;;;;9.32;7.18;;;6.40;99.90;;;;;;4954548;28;20057;-72
2024/02/14 03:35:14;;;;;;;10.73;7.28;;;6.50;99.90;;;;;;4939300;28;20665;-71
2024/02/14 03:37:43;;;;;;;12.75;7.47;;;6.50;99.90;;;;;;4942095;28;20708;-72
2024/02/14 03:40:11;;;;;;;10.10;7.03;;;6.50;99.90;;;;;;4945283;28;20525;-72
2024/02/14 03:42:39;;;;;;;11.10;6.97;;;6.50;99.90;;;;;;4942747;28;20052;-71
2024/02/14 03:45:07;;;;;;;9.38;7.13;;;6.60;99.90;;;;;;4942861;28;20045;-71
2024/02/14 03:47:35;;;;;;;9.57;6.60;;;6.60;99.90;;;;;;4946168;28;20593;-72
2024/02/14 03:50:04;;;;;;;11.07;6.57;;;6.60;99.90;;;;;;4945903;28;20042;-71
2024/02/14 03:52:33;;;;;;;11.68;8.00;;;6.70;99.90;;;;;;4948764;28;20227;-72
2024/02/14 03:57:53;;;;;;;8.00;7.20;;;6.80;99.90;;;;;;4932741;28;20063;-71
2024/02/14 04:00:22;;;;;;;11.93;7.05;;;6.80;99.90;;;;;;4926811;28;20040;-71
2024/02/14 04:02:50;;;;;;;11.77;7.03;;;6.80;99.90;;;;;;4945602;28;20716;-72
2024/02/14 04:05:17;;;;;;;11.48;7.28;;;6.80;99.90;;;;;;4940464;28;20042;-72
2024/02/14 04:07:48;;;;;;;9.07;7.47;;;6.80;99.90;;;;;;4944365;28;20069;-73
2024/02/14 04:10:16;;;;;;;9.68;7.15;;;6.80;99.90;;;;;;4945725;28;20051;-72
2024/02/14 04:12:42;;;;;;;6.82;6.20;;;6.80;99.90;;;;;;4933493;28;20137;-71
2024/02/14 04:15:09;;;;;;;11.57;8.00;;;6.90;99.90;;;;;;4947054;28;20506;-70
2024/02/14 04:17:36;;;;;;;8.65;7.55;;;6.90;99.90;;;;;;4946802;28;20129;-72
2024/02/14 04:20:04;;;;;;;14.05;8.48;;;6.90;99.90;;;;;;4944863;28;20042;-71
2024/02/14 04:22:31;;;;;;;12.32;7.43;;;6.90;99.90;;;;;;4936389;28;20065;-73
2024/02/14 04:24:58;;;;;;;9.52;7.85;;;7.00;99.90;;;;;;4937852;28;20052;-70
2024/02/14 04:27:24;;;;;;;10.27;7.55;;;7.00;99.90;;;;;;4924371;28;20047;-72
2024/02/14 04:29:51;;;;;;;10.15;7.55;;;7.00;99.90;;;;;;4932530;28;20119;-73
2024/02/14 04:32:19;;;;;;;11.77;7.07;;;7.00;99.90;;;;;;4953943;28;20078;-71
2024/02/14 04:34:46;;;;;;;10.63;7.07;;;7.10;99.90;;;;;;4955860;28;20042;-71
2024/02/14 04:37:13;;;;;;;7.63;6.85;;;7.10;99.90;;;;;;4929290;28;20422;-70
2024/02/14 04:39:41;;;;;;;7.32;5.90;;;7.10;99.90;;;;;;4944492;28;20050;-70
2024/02/14 04:42:08;;;;;;;7.10;6.50;;;7.20;99.90;;;;;;4965212;28;20035;-71
2024/02/14 04:44:36;;;;;;;6.82;5.80;;;7.30;99.90;;;;;;4954020;28;20049;-72
2024/02/14 04:47:03;;;;;;;7.18;6.32;;;7.50;99.90;;;;;;4939800;28;20047;-71
2024/02/14 04:49:30;;;;;;;6.10;5.60;;;7.70;99.90;;;;;;4953358;28;21302;-71
2024/02/14 04:51:57;;;;;;;7.15;6.65;;;7.90;99.90;;;;;;4959679;28;20039;-71
2024/02/14 04:54:25;;;;;;;10.00;9.00;;;8.10;99.90;;;;;;4937862;28;20046;-71
2024/02/14 04:56:52;;;;;;;9.68;8.73;;;8.20;99.90;;;;;;4945100;28;20047;-72
2024/02/14 04:59:25;;;;;;;7.78;7.22;;;8.20;99.90;;;;;;4946048;28;20130;-71
2024/02/14 05:01:53;;;;;;;7.35;6.90;;;8.30;99.90;;;;;;4946923;28;20038;-71
2024/02/14 05:04:20;;;;;;;7.55;7.00;;;8.30;99.90;;;;;;4944239;28;20051;-71
2024/02/14 05:06:47;;;;;;;7.53;7.03;;;8.30;99.90;;;;;;4950192;28;20943;-72
2024/02/14 05:09:15;;;;;;;7.35;6.85;;;8.20;99.90;;;;;;4948489;28;20050;-71
2024/02/14 05:11:42;;;;;;;7.65;7.15;;;8.20;99.90;;;;;;4930009;28;20411;-72
2024/02/14 05:14:09;;;;;;;13.82;7.60;;;8.20;99.90;;;;;;4925069;28;20060;-72
2024/02/14 05:16:36;;;;;;;8.25;7.55;;;8.30;99.90;;;;;;4937168;28;20051;-71
2024/02/14 05:19:03;;;;;;;8.88;8.38;;;8.40;99.90;;;;;;4948704;28;20059;-71
2024/02/14 05:21:30;;;;;;;9.73;8.70;;;8.40;99.90;;;;;;4943892;28;20043;-71
2024/02/14 05:23:57;;;;;;;7.85;7.40;;;8.50;99.90;;;;;;4952813;28;20616;-71
2024/02/14 05:26:23;;;;;;;8.43;7.75;;;8.50;99.90;;;;;;4943843;28;20051;-71
2024/02/14 05:28:50;;;;;;;7.88;7.28;;;8.50;99.90;;;;;;4964761;28;20062;-74
2024/02/14 05:31:17;;;;;;;7.90;7.28;;;8.50;99.90;;;;;;4945504;28;20055;-71
2024/02/14 05:33:44;;;;;;;8.13;7.63;;;8.50;99.90;;;;;;4954431;28;20494;-70
2024/02/14 05:36:11;;;;;;;8.63;7.95;;;8.60;99.90;;;;;;4948525;28;20396;-71
2024/02/14 05:38:38;;;;;;;9.05;8.20;;;8.70;99.90;;;;;;4942637;28;20050;-71
2024/02/14 05:41:07;;;;;;;8.23;7.72;;;8.80;99.90;;;;;;4964186;28;20050;-71
2024/02/14 05:43:34;;;;;;;8.65;8.07;;;8.80;99.90;;;;;;4946406;28;20093;-71
2024/02/14 05:46:01;;;;;;;8.55;7.97;;;8.80;99.90;;;;;;4940592;28;20059;-71
2024/02/14 05:48:28;;;;;;;8.52;8.02;;;8.80;99.90;;;;;;4918561;28;20073;-70
2024/02/14 05:50:55;;;;;;;8.88;8.10;;;8.90;99.90;;;;;;4921456;28;20054;-71
2024/02/14 05:53:22;;;;;;;8.35;7.93;;;8.90;99.90;;;;;;4944755;28;20608;-72
2024/02/14 05:55:48;;;;;;;8.20;7.80;;;8.80;99.90;;;;;;4942371;28;20047;-71
2024/02/14 05:58:15;;;;;;;8.25;7.68;;;8.90;99.90;;;;;;4946877;28;20057;-71
2024/02/14 06:00:42;;;;;;;7.88;7.40;;;8.90;99.90;;;;;;4943304;28;20638;-71
2024/02/14 06:03:09;;;;;;;7.50;7.00;;;8.90;99.90;;;;;;4945360;28;20133;-71
2024/02/14 06:05:36;;;;;;;9.20;8.25;;;8.90;99.90;;;;;;4932389;28;20059;-71
2024/02/14 06:08:03;;;;;;;7.47;7.07;;;8.90;99.90;;;;;;4969090;28;20434;-71
2024/02/14 06:10:30;;;;;;;7.68;7.28;;;8.90;99.90;;;;;;4942592;28;20126;-71
2024/02/14 06:12:57;;;;;;;8.30;7.80;;;8.90;99.90;;;;;;4939869;28;20062;-70
2024/02/14 06:15:24;;;;;;;8.15;6.60;;;8.90;99.90;;;;;;4933448;28;20105;-71
2024/02/14 06:17:50;;;;;;;7.32;6.88;;;8.90;99.90;;;;;;4936187;28;20546;-71
2024/02/14 06:20:18;;;;;;;9.73;7.65;;;8.90;99.90;;;;;;4932553;28;20073;-71
2024/02/14 06:22:45;;;;;;;5.88;5.47;;;8.80;99.90;;;;;;4964948;28;20058;-71
2024/02/14 06:25:26;;;;;;;6.07;5.50;;;8.80;99.90;;;;;;4934167;28;20061;-70
2024/02/14 06:27:54;;;;;;;6.60;4.80;;;8.60;99.90;;;;;;4932538;28;20139;-73
2024/02/14 06:30:20;;;;;;;4.55;4.15;;;8.60;99.90;;;;;;4937171;28;20035;-71
2024/02/14 06:32:47;;;;;;;4.93;4.30;;;8.60;99.90;;;;;;4924510;28;20058;-72
2024/02/14 06:35:18;;;;;;;6.15;4.57;;;8.60;99.90;;;;;;4928144;28;20150;-73
2024/02/14 06:37:46;;;;;;;6.88;6.10;;;8.60;99.90;;;;;;4961662;28;20043;-70
2024/02/14 06:40:27;;;;;;;8.25;6.38;;;8.60;99.90;;;;;;4961009;28;20054;-71
2024/02/14 06:42:54;;;;;;;8.18;4.65;;;8.60;99.90;;;;;;4947859;28;20051;-73
2024/02/14 06:45:21;;;;;;;7.82;6.13;;;8.60;99.90;;;;;;4924778;28;20144;-70
2024/02/14 06:47:48;;;;;;;8.60;5.88;;;8.60;99.90;;;;;;4943228;28;20058;-70
2024/02/14 06:50:15;;;;;;;6.22;5.57;;;8.60;99.90;;;;;;4947861;28;20142;-71
2024/02/14 06:52:42;;;;;;;7.55;4.63;;;8.70;99.90;;;;;;4958908;28;22016;-71
2024/02/14 06:55:09;;;;;;;7.78;4.53;;;8.60;99.90;;;;;;4926621;28;20050;-73
2024/02/14 06:57:36;;;;;;;5.80;3.80;;;8.70;99.90;;;;;;4942797;28;20043;-70
2024/02/14 07:00:05;;;;;;;5.18;4.53;;;8.70;99.90;;;;;;4945407;28;20043;-71
2024/02/14 07:02:32;;;;;;;10.45;7.05;;;8.70;99.90;;;;;;4921599;28;20604;-70
2024/02/14 07:04:59;;;;;;;5.32;4.82;;;8.80;99.90;;;;;;4922632;28;20052;-73
2024/02/14 07:07:27;;;;;;;5.68;4.22;;;8.80;99.90;;;;;;4940965;28;20047;-70
2024/02/14 07:09:54;;;;;;;10.07;5.97;;;8.90;99.90;;;;;;4948588;28;20057;-71
2024/02/14 07:12:21;;;;;;;6.00;5.40;;;8.90;99.90;;;;;;4950765;28;20054;-71
2024/02/14 07:14:48;;;;;;;6.20;5.70;;;8.90;99.90;;;;;;4942659;28;20051;-71
2024/02/14 07:17:15;;;;;;;5.63;5.15;;;8.90;99.90;;;;;;4946372;28;20140;-76
2024/02/14 07:19:47;;;;;;;6.68;6.07;;;9.00;99.90;;;;;;4943952;28;20051;-75
2024/02/14 07:22:15;;;;;;;6.53;5.97;;;9.00;99.90;;;;;;4954887;28;20039;-73
2024/02/14 07:24:42;;;;;;;6.70;6.05;;;9.10;99.90;;;;;;4949532;28;20039;-73
2024/02/14 07:27:09;;;;;;;6.53;6.00;;;9.20;99.90;;;;;;4946499;28;20039;-72
2024/02/14 07:29:37;;;;;;;6.78;6.18;;;9.20;99.90;;;;;;4948084;28;20055;-72
2024/02/14 07:32:06;;;;;;;8.25;7.63;;;9.20;99.90;;;;;;4949440;28;20070;-72
2024/02/14 07:34:33;;;;;;;8.80;8.10;;;9.30;99.90;;;;;;4951205;28;20146;-72
2024/02/14 07:37:01;;;;;;;7.95;7.22;;;9.30;99.90;;;;;;4948109;28;20133;-73
2024/02/14 07:39:27;;;;;;;7.82;7.13;;;9.40;99.90;;;;;;4948421;28;20541;-72
2024/02/14 07:41:57;;;;;;;7.53;7.03;;;9.40;99.90;;;;;;4948077;28;20047;-73
2024/02/14 07:44:23;;;;;;;7.68;7.07;;;9.30;99.90;;;;;;4952723;28;20138;-73
2024/02/14 07:46:52;;;;;;;10.38;9.73;;;9.40;99.90;;;;;;4933579;28;20455;-73
2024/02/14 07:49:21;;;;;;;10.27;9.68;;;9.40;99.90;;;;;;4929770;28;20138;-73
2024/02/14 07:51:48;;;;;;;9.65;9.15;;;9.40;99.90;;;;;;4937513;28;21169;-73
2024/02/14 07:54:15;;;;;;;11.00;10.30;;;9.40;99.90;;;;;;4945909;28;20054;-73
2024/02/14 07:56:41;;;;;;;10.27;9.60;;;9.40;99.90;;;;;;4944530;28;20134;-72
2024/02/14 07:59:08;;;;;;;9.63;8.88;;;9.40;99.90;;;;;;4952897;28;20138;-73
2024/02/14 08:01:35;;;;;;;9.43;8.63;;;9.50;99.90;;;;;;4973435;28;20035;-72
2024/02/14 08:04:04;;;;;;;9.27;8.43;;;9.40;99.90;;;;;;4960031;28;20475;-73
2024/02/14 08:06:30;;;;;;;8.45;7.90;;;9.40;99.90;;;;;;4955770;28;20039;-72
2024/02/14 08:09:01;;;;;;;8.93;8.32;;;9.50;99.90;;;;;;4966054;28;20047;-74
2024/02/14 08:11:29;;;;;;;9.80;8.93;;;9.50;99.90;;;;;;4939914;28;20055;-72
2024/02/14 08:13:56;;;;;;;8.30;7.57;;;9.50;99.90;;;;;;4935656;28;20458;-72
2024/02/14 08:16:22;;;;;;;8.20;7.70;;;9.50;99.90;;;;;;4933642;28;20731;-72
2024/02/14 08:18:50;;;;;;;7.57;7.07;;;9.50;99.90;;;;;;4936118;28;20055;-72
2024/02/14 08:21:17;;;;;;;10.07;9.20;;;9.60;99.90;;;;;;4945975;28;20054;-73
2024/02/14 08:23:44;;;;;;;9.30;8.50;;;9.50;99.90;;;;;;4973197;28;20039;-75
2024/02/14 08:26:11;;;;;;;7.75;7.22;;;9.60;99.90;;;;;;4946344;28;20185;-73
2024/02/14 08:28:38;;;;;;;8.43;7.72;;;9.60;99.90;;;;;;4954355;28;20409;-74
2024/02/14 08:31:11;;;;;;;8.98;7.90;;;9.60;99.90;;;;;;4957855;28;20062;-72
2024/02/14 08:33:38;;;;;;;7.82;7.38;;;9.60;99.90;;;;;;4951233;28;20047;-72
2024/02/14 08:36:06;;;;;;;7.80;7.20;;;9.60;99.90;;;;;;4957327;28;20039;-71
2024/02/14 08:38:34;;;;;;;7.30;6.60;;;9.60;99.90;;;;;;4944710;28;20088;-71
2024/02/14 08:41:02;;;;;;;7.00;6.50;;;9.60;99.90;;;;;;4953412;28;20047;-71
2024/02/14 08:43:29;;;;;;;6.80;6.20;;;9.60;99.90;;;;;;4947682;28;20101;-72
2024/02/14 08:45:57;;;;;;;7.70;7.03;;;9.60;99.90;;;;;;4964270;28;20074;-72
2024/02/14 08:48:25;;;;;;;11.18;9.40;;;9.60;99.90;;;;;;4977656;28;20053;-72
2024/02/14 08:50:51;;;;;;;10.10;9.05;;;9.60;99.90;;;;;;4977182;28;20050;-72
2024/02/14 08:53:18;;;;;;;7.10;6.60;;;9.60;99.90;;;;;;4956135;28;20057;-73
2024/02/14 08:55:45;;;;;;;7.82;7.25;;;9.70;99.90;;;;;;4952251;28;20043;-73
2024/02/14 08:58:12;;;;;;;8.02;7.43;;;9.70;99.90;;;;;;4939074;28;20728;-74
2024/02/14 09:00:39;;;;;;;6.97;6.53;;;9.70;99.90;;;;;;4950831;28;20630;-73
2024/02/14 09:03:06;;;;;;;7.28;6.68;;;9.80;99.90;;;;;;4952359;28;20048;-73
2024/02/14 09:05:34;;;;;;;7.60;6.90;;;9.80;99.90;;;;;;4946649;28;20052;-73
2024/02/14 09:08:01;;;;;;;7.03;6.38;;;9.80;99.90;;;;;;4928997;28;20572;-73
2024/02/14 09:10:28;;;;;;;8.43;7.82;;;9.80;99.90;;;;;;4947624;28;20047;-73
2024/02/14 09:12:55;;;;;;;8.48;7.78;;;9.80;99.90;;;;;;4938013;28;20627;-73
2024/02/14 09:15:21;;;;;;;8.95;8.23;;;9.90;99.90;;;;;;4936549;28;20047;-73
2024/02/14 09:17:48;;;;;;;7.30;6.90;;;9.80;99.90;;;;;;4934876;28;20059;-73
2024/02/14 09:20:15;;;;;;;7.85;7.35;;;9.90;99.90;;;;;;4936447;28;20047;-73
2024/02/14 09:22:42;;;;;;;6.78;6.13;;;9.90;99.90;;;;;;4949438;28;20077;-73
2024/02/14 09:25:09;;;;;;;6.45;5.90;;;9.80;99.90;;;;;;4953035;28;20047;-73
2024/02/14 09:27:36;;;;;;;9.27;8.30;;;9.80;99.90;;;;;;4949699;28;20618;-73
2024/02/14 09:30:04;;;;;;;8.10;5.40;;;9.70;99.90;;;;;;4950013;28;20042;-72
2024/02/14 09:32:31;;;;;;;6.65;5.65;;;9.60;99.90;;;;;;4948936;28;20051;-74
2024/02/14 09:34:59;;;;;;;6.20;5.60;;;9.50;99.90;;;;;;4968960;28;20047;-73
2024/02/14 09:37:29;;;;;;;7.07;5.45;;;9.50;99.90;;;;;;4954233;28;20620;-73
2024/02/14 09:39:57;;;;;;;8.05;7.22;;;9.50;99.90;;;;;;4946871;28;20580;-74
2024/02/14 09:42:35;;;;;;;6.20;5.57;;;9.50;99.90;;;;;;4954892;28;20039;-73
2024/02/14 09:45:03;;;;;;;4.90;4.40;;;9.50;99.90;;;;;;4956147;28;20944;-74
2024/02/14 09:47:32;;;;;;;8.07;7.25;;;9.50;99.90;;;;;;4939211;28;20033;-73
2024/02/14 09:50:02;;;;;;;6.55;5.88;;;9.60;99.90;;;;;;4948864;28;20079;-73
2024/02/14 09:52:33;;;;;;;7.43;5.28;;;9.60;99.90;;;;;;4949536;28;20039;-73
2024/02/14 09:55:02;;;;;;;6.70;5.68;;;9.60;99.90;;;;;;4966504;28;20056;-73
2024/02/14 09:57:29;;;;;;;6.25;5.15;;;9.60;99.90;;;;;;4950308;28;20101;-73
2024/02/14 09:59:57;;;;;;;7.90;5.65;;;9.60;99.90;;;;;;4962540;28;20059;-73
2024/02/14 10:02:24;;;;;;;7.38;6.68;;;9.60;99.90;;;;;;4945598;28;20047;-74
2024/02/14 10:04:51;;;;;;;7.18;5.43;;;9.60;99.90;;;;;;4952481;28;20074;-73
2024/02/14 10:07:18;;;;;;;5.32;4.68;;;9.70;99.90;;;;;;4962680;28;20546;-73
2024/02/14 10:09:45;;;;;;;7.28;5.68;;;9.80;99.90;;;;;;4953887;28;20050;-73
2024/02/14 10:12:12;;;;;;;6.53;5.93;;;9.80;99.90;;;;;;4933369;28;20524;-73
2024/02/14 10:14:40;;;;;;;6.05;5.65;;;9.90;99.90;;;;;;4931244;28;20051;-74
2024/02/14 10:17:09;;;;;;;6.70;6.20;;;10.00;99.90;;;;;;4930251;28;20125;-74
2024/02/14 10:19:36;;;;;;;7.28;6.60;;;10.00;99.90;;;;;;4929025;28;20069;-73
2024/02/14 10:22:05;;;;;;;7.72;7.13;;;10.10;99.90;;;;;;4951258;28;20981;-73
2024/02/14 10:24:32;;;;;;;7.88;7.18;;;10.10;99.90;;;;;;4950376;28;20051;-73
2024/02/14 10:26:59;;;;;;;7.30;6.78;;;10.20;99.90;;;;;;4931791;28;20051;-74
2024/02/14 10:29:27;;;;;;;8.93;8.23;;;10.20;99.90;;;;;;4940772;28;20669;-73
2024/02/14 10:31:54;;;;;;;8.00;7.50;;;10.20;99.90;;;;;;4936951;28;20103;-73
2024/02/14 10:34:26;;;;;;;7.63;7.13;;;10.30;99.90;;;;;;4930049;28;20580;-73
2024/02/14 10:36:56;;;;;;;8.65;7.95;;;10.30;99.90;;;;;;4967970;28;20048;-73
2024/02/14 10:39:25;;;;;;;9.55;8.75;;;10.30;99.90;;;;;;4950098;28;20065;-73
2024/02/14 10:41:53;;;;;;;9.13;8.50;;;10.40;99.90;;;;;;4934066;28;20427;-73
2024/02/14 10:44:20;;;;;;;10.27;9.57;;;10.40;99.90;;;;;;4932122;28;20057;-73
2024/02/14 10:46:52;;;;;;;8.90;8.30;;;10.40;99.90;;;;;;4934330;28;20039;-73
2024/02/14 10:49:20;;;;;;;9.70;8.90;;;10.50;99.90;;;;;;4937042;28;20050;-73
2024/02/14 10:51:49;;;;;;;9.38;8.77;;;10.50;99.90;;;;;;4942165;28;20590;-73
2024/02/14 10:54:19;;;;;;;7.70;7.20;;;10.40;99.90;;;;;;4961284;28;20523;-73
2024/02/14 10:56:50;;;;;;;8.75;7.85;;;10.50;99.90;;;;;;4924283;28;20047;-72
2024/02/14 10:59:20;;;;;;;8.82;8.13;;;10.40;99.90;;;;;;4945538;28;20055;-73
2024/02/14 11:01:48;;;;;;;8.13;7.43;;;10.40;99.90;;;;;;4940658;28;20043;-73
2024/02/14 11:04:16;;;;;;;8.45;7.68;;;10.40;99.90;;;;;;4944930;28;20043;-73
2024/02/14 11:06:57;;;;;;;7.72;7.03;;;10.40;99.90;;;;;;4958312;28;20058;-74
2024/02/14 11:09:36;;;;;;;9.10;8.30;;;10.40;99.90;;;;;;4943718;28;20043;-73
2024/02/14 11:12:10;;;;;;;8.95;7.10;;;10.40;99.90;;;;;;4947033;28;20047;-73
2024/02/14 11:14:39;;;;;;;7.60;6.90;;;10.30;99.90;;;;;;4928835;28;20468;-73
2024/02/14 11:17:18;;;;;;;9.18;7.70;;;10.20;99.90;;;;;;4937563;28;20042;-74
2024/02/14 11:19:45;;;;;;;9.05;8.00;;;10.20;99.90;;;;;;4933539;28;20570;-73
2024/02/14 11:22:17;;;;;;;10.55;8.00;;;10.20;99.90;;;;;;4960482;28;20547;-73
2024/02/14 11:24:48;;;;;;;12.80;8.93;;;10.20;99.90;;;;;;4968306;28;20659;-74
2024/02/14 11:27:20;;;;;;;20.13;18.33;;;10.10;99.90;;;;;;4931167;28;20052;-74
2024/02/14 11:30:00;;;;;;;9.10;7.55;;;10.20;99.90;;;;;;4944626;28;20791;-73
2024/02/14 11:32:28;;;;;;;7.63;6.85;;;10.20;99.90;;;;;;4937170;28;20133;-73
2024/02/14 11:34:56;;;;;;;8.95;7.88;;;10.20;99.90;;;;;;4926142;28;20047;-73
2024/02/14 11:37:31;;;;;;;9.00;7.90;;;10.30;99.90;;;;;;4930208;28;20046;-73
2024/02/14 11:39:58;;;;;;;8.98;8.18;;;10.40;99.90;;;;;;4930439;28;20047;-74
2024/02/14 11:42:25;;;;;;;9.77;8.88;;;10.50;99.90;;;;;;4958757;28;20759;-73
2024/02/14 11:44:55;;;;;;;10.63;9.50;;;10.50;99.90;;;;;;4951505;28;20055;-74
2024/02/14 11:47:23;;;;;;;10.82;8.27;;;10.50;99.90;;;;;;4972914;28;20039;-73
2024/02/14 11:49:50;;;;;;;28.63;13.02;;;10.50;99.90;;;;;;4970033;28;20043;-73
2024/02/14 11:52:19;;;;;;;15.35;11.48;;;10.50;99.90;;;;;;4933678;28;20059;-74
2024/02/14 11:54:48;;;;;;;12.48;10.07;;;10.40;99.90;;;;;;4933665;28;20061;-75
2024/02/14 11:57:19;;;;;;;8.32;7.53;;;10.50;99.90;;;;;;4928472;28;20592;-74
2024/02/14 11:59:52;;;;;;;9.77;8.10;;;10.40;99.90;;;;;;4931387;28;20054;-72
2024/02/14 12:02:20;;;;;;;10.82;9.77;;;10.40;99.90;;;;;;4952195;28;21046;-73
2024/02/14 12:04:50;;;;;;;14.15;12.35;;;10.40;99.90;;;;;;4937183;28;20051;-73
2024/02/14 12:07:18;;;;;;;12.57;9.52;;;10.40;99.90;;;;;;4966391;28;20522;-72
2024/02/14 12:09:45;;;;;;;10.98;8.27;;;10.30;99.90;;;;;;4946246;28;20071;-73
2024/02/14 12:12:12;;;;;;;8.77;6.93;;;10.30;99.90;;;;;;4963319;28;20054;-73
2024/02/14 12:14:39;;;;;;;8.73;7.63;;;10.30;99.90;;;;;;4951645;28;20043;-73
2024/02/14 12:17:06;;;;;;;9.38;8.00;;;10.30;99.90;;;;;;4952113;28;20051;-76
2024/02/14 12:19:34;;;;;;;8.68;7.25;;;10.20;99.90;;;;;;4951442;28;20047;-73
2024/02/14 12:22:02;;;;;;;13.50;10.60;;;10.20;99.90;;;;;;4949084;28;20047;-73
2024/02/14 12:24:29;;;;;;;10.82;8.60;;;10.20;99.90;;;;;;4942355;28;20067;-76
2024/02/14 12:26:56;;;;;;;9.43;7.22;;;10.20;99.90;;;;;;4952261;28;20098;-76
2024/02/14 12:29:25;;;;;;;8.52;7.47;;;10.20;99.90;;;;;;4956862;28;20103;-73
2024/02/14 12:31:51;;;;;;;11.95;7.57;;;10.20;99.90;;;;;;4965553;28;20558;-74
2024/02/14 12:34:20;;;;;;;7.47;6.78;;;10.20;99.90;;;;;;4964952;28;20058;-74
2024/02/14 12:36:51;;;;;;;9.23;7.20;;;10.20;99.90;;;;;;4977899;28;20036;-75
2024/02/14 12:39:20;;;;;;;9.23;7.72;;;10.20;99.90;;;;;;4962223;28;20511;-75
2024/02/14 12:41:47;;;;;;;8.40;7.03;;;10.20;99.90;;;;;;4974002;28;20055;-74
2024/02/14 12:44:14;;;;;;;7.30;6.60;;;10.20;99.90;;;;;;4973306;28;20031;-74
2024/02/14 12:46:42;;;;;;;9.70;7.55;;;10.20;99.90;;;;;;4967524;28;20067;-74
2024/02/14 12:49:09;;;;;;;9.50;7.30;;;10.20;99.90;;;;;;4971452;28;20038;-75
2024/02/14 12:51:38;;;;;;;9.40;7.18;;;10.20;99.90;;;;;;4979007;28;20118;-74
2024/02/14 12:54:07;;;;;;;11.80;8.57;;;10.20;99.90;;;;;;4975170;28;20070;-74